createdAt,value
2018-08-11T00:00:52.876Z,1.70
2018-08-11T00:03:22.081Z,1.40
2018-08-11T00:05:51.276Z,1.40
2018-08-11T00:08:20.481Z,1.67
2018-08-11T00:10:49.590Z,1.43
2018-08-11T00:13:18.825Z,1.17
2018-08-11T00:15:47.970Z,1.70
2018-08-11T00:18:17.169Z,2.00
2018-08-11T00:20:46.430Z,2.10
2018-08-11T00:23:15.688Z,2.10
2018-08-11T00:25:44.868Z,1.50
2018-08-11T00:28:14.074Z,1.90
2018-08-11T00:30:43.209Z,1.50
2018-08-11T00:33:12.468Z,1.60
2018-08-11T00:35:41.638Z,1.70
2018-08-11T00:38:10.865Z,1.60
2018-08-11T00:40:40.070Z,1.67
2018-08-11T00:43:09.409Z,1.23
2018-08-11T00:45:38.579Z,1.63
2018-08-11T00:48:07.847Z,1.67
2018-08-11T00:50:37.690Z,1.40
2018-08-11T00:53:07.716Z,1.40
2018-08-11T00:55:37.794Z,1.50
2018-08-11T00:58:07.067Z,1.27
2018-08-11T01:00:36.239Z,1.23
2018-08-11T01:03:05.483Z,2.10
2018-08-11T01:05:34.751Z,1.43
2018-08-11T01:08:03.999Z,1.30
2018-08-11T01:10:33.059Z,1.53
2018-08-11T01:13:02.284Z,1.13
2018-08-11T01:15:31.516Z,1.30
2018-08-11T01:18:00.753Z,1.40
2018-08-11T01:20:29.880Z,1.20
2018-08-11T01:22:59.114Z,1.40
2018-08-11T01:25:28.246Z,0.83
2018-08-11T01:27:57.448Z,1.03
2018-08-11T01:30:26.705Z,1.20
2018-08-11T01:32:55.879Z,1.03
2018-08-11T01:35:24.977Z,1.00
2018-08-11T01:37:54.159Z,1.07
2018-08-11T01:40:23.366Z,1.40
2018-08-11T01:42:52.495Z,0.90
2018-08-11T01:45:21.680Z,1.10
2018-08-11T01:47:50.940Z,1.17
2018-08-11T01:50:20.089Z,1.77
2018-08-11T01:52:49.290Z,1.17
2018-08-11T01:55:32.833Z,0.93
2018-08-11T01:58:02.067Z,1.20
2018-08-11T02:00:31.254Z,1.33
2018-08-11T02:03:00.595Z,1.10
2018-08-11T02:05:29.710Z,1.30
2018-08-11T02:07:58.884Z,1.17
2018-08-11T02:10:28.176Z,1.00
2018-08-11T02:12:57.384Z,1.20
2018-08-11T02:15:26.550Z,1.30
2018-08-11T02:17:55.720Z,1.40
2018-08-11T02:20:24.831Z,1.20
2018-08-11T02:22:54.126Z,1.53
2018-08-11T02:25:23.250Z,1.10
2018-08-11T02:27:52.454Z,1.10
2018-08-11T02:30:21.582Z,1.13
2018-08-11T02:32:50.811Z,1.33
2018-08-11T02:35:19.978Z,1.30
2018-08-11T02:37:49.144Z,1.23
2018-08-11T02:40:18.306Z,1.40
2018-08-11T02:42:47.515Z,1.17
2018-08-11T02:45:17.757Z,1.13
2018-08-11T02:47:47.661Z,1.10
2018-08-11T02:50:16.776Z,1.10
2018-08-11T02:52:45.964Z,1.20
2018-08-11T02:55:15.198Z,1.20
2018-08-11T02:57:44.384Z,1.00
2018-08-11T03:00:13.667Z,1.23
2018-08-11T03:02:42.874Z,1.07
2018-08-11T03:05:12.064Z,1.20
2018-08-11T03:07:41.260Z,1.27
2018-08-11T03:10:11.740Z,0.80
2018-08-11T03:12:41.715Z,1.13
2018-08-11T03:15:12.237Z,1.17
2018-08-11T03:17:42.010Z,1.40
2018-08-11T03:20:13.269Z,1.20
2018-08-11T03:22:42.818Z,0.90
2018-08-11T03:25:12.079Z,1.10
2018-08-11T03:27:41.302Z,1.10
2018-08-11T03:30:10.636Z,1.37
2018-08-11T03:32:39.802Z,1.40
2018-08-11T03:35:08.956Z,1.10
2018-08-11T03:37:38.337Z,1.20
2018-08-11T03:40:09.410Z,0.90
2018-08-11T03:42:38.584Z,1.30
2018-08-11T03:45:07.794Z,1.00
2018-08-11T03:47:37.056Z,1.40
2018-08-11T03:50:06.883Z,1.10
2018-08-11T03:52:36.257Z,1.10
2018-08-11T03:55:05.460Z,1.27
2018-08-11T03:57:34.726Z,1.10
2018-08-11T04:00:03.963Z,0.90
2018-08-11T04:02:33.155Z,0.90
2018-08-11T04:05:02.271Z,1.00
2018-08-11T04:07:31.453Z,1.30
2018-08-11T04:10:01.036Z,0.80
2018-08-11T04:12:30.803Z,1.20
2018-08-11T04:15:00.185Z,1.00
2018-08-11T04:17:36.311Z,1.00
2018-08-11T04:20:05.777Z,1.03
2018-08-11T04:22:35.004Z,1.00
2018-08-11T04:25:04.325Z,1.10
2018-08-11T04:27:33.580Z,1.00
2018-08-11T04:30:03.407Z,1.10
2018-08-11T04:32:33.995Z,1.17
2018-08-11T04:35:03.236Z,1.03
2018-08-11T04:37:32.521Z,1.07
2018-08-11T04:40:01.731Z,1.07
2018-08-11T04:42:31.051Z,1.03
2018-08-11T04:45:00.321Z,1.40
2018-08-11T04:47:29.618Z,1.10
2018-08-11T04:49:58.981Z,1.33
2018-08-11T04:52:28.754Z,1.20
2018-08-11T04:54:58.016Z,1.23
2018-08-11T04:57:27.167Z,1.10
2018-08-11T04:59:56.505Z,1.23
2018-08-11T05:02:26.069Z,1.00
2018-08-11T05:04:55.538Z,1.20
2018-08-11T05:07:24.789Z,1.30
2018-08-11T05:09:54.105Z,1.40
2018-08-11T05:12:23.452Z,1.47
2018-08-11T05:14:52.733Z,1.00
2018-08-11T05:17:22.073Z,1.10
2018-08-11T05:19:51.764Z,1.10
2018-08-11T05:22:20.998Z,1.17
2018-08-11T05:24:50.726Z,1.10
2018-08-11T05:27:20.021Z,1.20
2018-08-11T05:29:49.245Z,1.27
2018-08-11T05:32:18.444Z,1.17
2018-08-11T05:34:47.983Z,1.00
2018-08-11T05:37:17.321Z,1.20
2018-08-11T05:39:46.613Z,1.33
2018-08-11T05:42:16.400Z,1.17
2018-08-11T05:44:45.696Z,1.17
2018-08-11T05:47:14.877Z,0.90
2018-08-11T05:49:44.311Z,1.00
2018-08-11T05:52:13.519Z,1.87
2018-08-11T05:54:42.790Z,1.83
2018-08-11T05:57:12.019Z,1.13
2018-08-11T05:59:41.242Z,1.20
2018-08-11T06:02:10.480Z,1.27
2018-08-11T06:04:39.857Z,1.33
2018-08-11T06:07:09.046Z,0.97
2018-08-11T06:09:38.261Z,1.07
2018-08-11T06:12:07.430Z,0.97
2018-08-11T06:14:36.610Z,1.20
2018-08-11T06:17:05.849Z,1.13
2018-08-11T06:19:35.165Z,1.00
2018-08-11T06:22:04.396Z,1.00
2018-08-11T06:24:33.629Z,1.30
2018-08-11T06:27:02.857Z,1.00
2018-08-11T06:29:32.328Z,1.20
2018-08-11T06:32:01.611Z,1.20
2018-08-11T06:34:30.955Z,0.90
2018-08-11T06:37:00.210Z,1.13
2018-08-11T06:39:29.442Z,1.30
2018-08-11T06:41:58.775Z,1.10
2018-08-11T06:44:28.011Z,1.30
2018-08-11T06:46:57.310Z,1.50
2018-08-11T06:49:26.549Z,1.60
2018-08-11T06:51:55.771Z,1.27
2018-08-11T06:54:25.209Z,1.20
2018-08-11T06:56:54.586Z,1.57
2018-08-11T06:59:23.971Z,1.20
2018-08-11T07:01:53.231Z,1.20
2018-08-11T07:04:22.611Z,1.17
2018-08-11T07:06:51.992Z,1.07
2018-08-11T07:09:21.426Z,1.03
2018-08-11T07:11:50.919Z,1.10
2018-08-11T07:14:20.237Z,1.23
2018-08-11T07:16:49.501Z,1.43
2018-08-11T07:19:18.723Z,1.30
2018-08-11T07:21:48.498Z,1.00
2018-08-11T07:24:17.893Z,1.50
2018-08-11T07:26:47.091Z,1.00
2018-08-11T07:29:16.364Z,1.40
2018-08-11T07:31:45.822Z,1.13
2018-08-11T07:34:15.993Z,1.43
2018-08-11T07:36:45.411Z,1.00
2018-08-11T07:39:15.114Z,1.93
2018-08-11T07:41:44.350Z,0.90
2018-08-11T07:44:13.556Z,0.83
2018-08-11T07:46:43.281Z,0.80
2018-08-11T07:49:13.288Z,0.90
2018-08-11T07:51:42.651Z,0.80
2018-08-11T07:54:11.878Z,0.87
2018-08-11T07:56:41.128Z,0.70
2018-08-11T07:59:10.370Z,0.87
2018-08-11T08:01:39.718Z,0.70
2018-08-11T08:04:08.939Z,0.70
2018-08-11T08:06:38.189Z,0.80
2018-08-11T08:09:10.637Z,0.70
2018-08-11T08:11:40.255Z,0.90
2018-08-11T08:14:09.825Z,1.00
2018-08-11T08:16:39.042Z,0.60
2018-08-11T08:19:08.658Z,0.63
2018-08-11T08:21:37.902Z,0.63
2018-08-11T08:24:07.116Z,0.60
2018-08-11T08:26:36.429Z,0.70
2018-08-11T08:29:05.804Z,0.50
2018-08-11T08:31:35.405Z,0.53
2018-08-11T08:34:04.599Z,0.53
2018-08-11T08:36:33.807Z,0.50
2018-08-11T08:39:03.464Z,0.60
2018-08-11T08:41:32.907Z,0.47
2018-08-11T08:44:02.173Z,0.60
2018-08-11T08:46:31.622Z,0.80
2018-08-11T08:49:00.893Z,0.60
2018-08-11T08:51:30.244Z,0.80
2018-08-11T08:53:59.879Z,0.60
2018-08-11T08:56:29.391Z,0.50
2018-08-11T08:58:58.750Z,0.40
2018-08-11T09:01:28.013Z,0.50
2018-08-11T09:03:57.877Z,0.77
2018-08-11T09:06:27.276Z,0.70
2018-08-11T09:08:56.740Z,0.60
2018-08-11T09:11:25.965Z,0.60
2018-08-11T09:13:55.115Z,0.70
2018-08-11T09:16:24.356Z,0.70
2018-08-11T09:18:53.758Z,0.83
2018-08-11T09:21:23.201Z,0.70
2018-08-11T09:23:52.565Z,0.60
2018-08-11T09:26:21.873Z,0.40
2018-08-11T09:28:51.237Z,0.60
2018-08-11T09:31:20.628Z,0.67
2018-08-11T09:33:49.919Z,0.80
2018-08-11T09:36:19.171Z,0.47
2018-08-11T09:38:48.457Z,0.70
2018-08-11T09:41:17.730Z,0.50
2018-08-11T09:43:46.950Z,0.57
2018-08-11T09:46:16.176Z,0.70
2018-08-11T09:48:45.485Z,0.70
2018-08-11T09:51:14.824Z,0.70
2018-08-11T09:53:44.180Z,0.60
2018-08-11T09:56:13.425Z,0.70
2018-08-11T09:58:42.607Z,0.70
2018-08-11T10:01:16.792Z,0.67
2018-08-11T10:03:45.987Z,1.00
2018-08-11T10:06:15.225Z,0.80
2018-08-11T10:08:44.517Z,0.70
2018-08-11T10:11:13.797Z,0.60
2018-08-11T10:13:43.126Z,0.77
2018-08-11T10:16:12.456Z,0.60
2018-08-11T10:18:41.837Z,0.60
2018-08-11T10:21:11.270Z,0.60
2018-08-11T10:23:40.436Z,0.70
2018-08-11T10:26:09.824Z,0.60
2018-08-11T10:28:39.069Z,0.67
2018-08-11T10:31:08.460Z,0.50
2018-08-11T10:33:37.776Z,0.50
2018-08-11T10:36:07.029Z,0.60
2018-08-11T10:38:36.275Z,0.60
2018-08-11T10:41:05.586Z,0.60
2018-08-11T10:43:34.894Z,0.80
2018-08-11T10:46:04.750Z,0.57
2018-08-11T10:48:34.125Z,0.80
2018-08-11T10:51:03.756Z,0.83
2018-08-11T10:53:33.127Z,0.50
2018-08-11T10:56:02.509Z,0.70
2018-08-11T10:58:31.773Z,0.50
2018-08-11T11:01:01.104Z,0.70
2018-08-11T11:03:30.318Z,0.50
2018-08-11T11:05:59.560Z,0.70
2018-08-11T11:08:29.022Z,0.83
2018-08-11T11:10:58.277Z,0.53
2018-08-11T11:13:27.564Z,0.70
2018-08-11T11:15:56.898Z,0.67
2018-08-11T11:18:26.182Z,0.40
2018-08-11T11:20:55.487Z,0.50
2018-08-11T11:23:24.835Z,1.00
2018-08-11T11:25:54.062Z,0.60
2018-08-11T11:28:23.391Z,0.50
2018-08-11T11:30:52.680Z,0.60
2018-08-11T11:33:21.981Z,0.50
2018-08-11T11:35:51.265Z,0.50
2018-08-11T11:38:20.609Z,0.60
2018-08-11T11:40:49.820Z,0.60
2018-08-11T11:43:19.352Z,0.73
2018-08-11T11:45:48.724Z,0.57
2018-08-11T11:48:18.051Z,0.40
2018-08-11T11:50:47.341Z,0.63
2018-08-11T11:53:16.724Z,0.57
2018-08-11T11:55:46.037Z,0.50
2018-08-11T11:58:15.262Z,0.50
2018-08-11T12:00:44.595Z,0.70
2018-08-11T12:03:13.937Z,0.40
2018-08-11T12:05:43.405Z,0.60
2018-08-11T12:08:12.748Z,0.60
2018-08-11T12:10:42.003Z,0.60
2018-08-11T12:13:11.339Z,0.43
2018-08-11T12:15:40.888Z,0.60
2018-08-11T12:18:10.237Z,0.60
2018-08-11T12:20:39.545Z,0.73
2018-08-11T12:23:08.782Z,0.70
2018-08-11T12:25:37.970Z,0.53
2018-08-11T12:28:07.295Z,0.57
2018-08-11T12:30:36.631Z,0.60
2018-08-11T12:33:05.987Z,0.60
2018-08-11T12:35:35.181Z,0.63
2018-08-11T12:38:04.585Z,0.80
2018-08-11T12:40:33.909Z,0.60
2018-08-11T12:43:03.466Z,0.60
2018-08-11T12:45:32.733Z,0.50
2018-08-11T12:48:02.067Z,0.77
2018-08-11T12:50:31.418Z,0.60
2018-08-11T12:53:00.662Z,0.50
2018-08-11T12:55:30.306Z,0.50
2018-08-11T12:57:59.690Z,0.60
2018-08-11T13:00:28.969Z,0.53
2018-08-11T13:02:58.206Z,0.50
2018-08-11T13:05:27.566Z,0.40
2018-08-11T13:07:56.850Z,0.50
2018-08-11T13:10:26.293Z,0.90
2018-08-11T13:12:55.650Z,0.50
2018-08-11T13:15:25.001Z,0.60
2018-08-11T13:17:54.302Z,0.60
2018-08-11T13:20:23.736Z,0.53
2018-08-11T13:22:52.726Z,0.50
2018-08-11T13:25:21.943Z,0.60
2018-08-11T13:27:50.969Z,0.70
2018-08-11T13:30:20.009Z,0.83
2018-08-11T13:32:49.022Z,0.67
2018-08-11T13:35:18.062Z,0.80
2018-08-11T13:37:47.038Z,0.57
2018-08-11T13:40:16.139Z,1.13
2018-08-11T13:42:45.254Z,0.60
2018-08-11T13:45:14.278Z,0.60
2018-08-11T13:47:43.258Z,0.70
2018-08-11T13:50:12.270Z,0.67
2018-08-11T13:52:41.233Z,0.60
2018-08-11T13:55:10.384Z,0.50
2018-08-11T13:57:39.349Z,0.50
2018-08-11T14:00:09.374Z,0.80
2018-08-11T14:02:38.398Z,0.67
2018-08-11T14:05:07.522Z,0.80
2018-08-11T14:07:36.565Z,0.73
2018-08-11T14:10:07.261Z,0.60
2018-08-11T14:12:36.212Z,0.50
2018-08-11T14:15:05.834Z,0.60
2018-08-11T14:17:34.822Z,0.73
2018-08-11T14:20:03.833Z,0.80
2018-08-11T14:22:32.899Z,0.80
2018-08-11T14:25:01.978Z,0.60
2018-08-11T14:27:30.929Z,0.70
2018-08-11T14:29:59.959Z,0.50
2018-08-11T14:32:28.930Z,0.47
2018-08-11T14:34:57.997Z,0.40
2018-08-11T14:37:26.977Z,0.80
2018-08-11T14:39:56.021Z,0.50
2018-08-11T14:42:25.143Z,0.80
2018-08-11T14:44:54.187Z,0.60
2018-08-11T14:47:23.178Z,0.70
2018-08-11T14:49:52.276Z,0.60
2018-08-11T14:52:21.409Z,0.60
2018-08-11T14:54:50.560Z,0.53
2018-08-11T14:57:19.661Z,0.77
2018-08-11T14:59:48.904Z,0.70
2018-08-11T15:02:17.981Z,0.70
2018-08-11T15:04:47.170Z,0.70
2018-08-11T15:07:16.341Z,0.53
2018-08-11T15:09:45.477Z,0.80
2018-08-11T15:12:14.527Z,0.60
2018-08-11T15:14:43.818Z,0.67
2018-08-11T15:17:12.839Z,0.50
2018-08-11T15:19:41.938Z,1.73
2018-08-11T15:22:10.905Z,0.60
2018-08-11T15:24:40.229Z,0.70
2018-08-11T15:27:09.402Z,0.50
2018-08-11T15:29:38.463Z,0.50
2018-08-11T15:32:07.534Z,0.70
2018-08-11T15:34:36.779Z,0.43
2018-08-11T15:37:06.550Z,0.50
2018-08-11T15:39:35.669Z,0.50
2018-08-11T15:42:04.913Z,0.70
2018-08-11T15:44:33.883Z,0.80
2018-08-11T15:47:02.906Z,0.70
2018-08-11T15:49:31.909Z,0.80
2018-08-11T15:52:00.934Z,0.70
2018-08-11T15:54:29.944Z,0.90
2018-08-11T15:56:58.989Z,0.80
2018-08-11T15:59:28.013Z,0.70
2018-08-11T16:01:57.038Z,0.77
2018-08-11T16:04:26.082Z,0.70
2018-08-11T16:06:55.082Z,0.50
2018-08-11T16:09:24.114Z,0.63
2018-08-11T16:11:53.166Z,0.70
2018-08-11T16:14:22.157Z,0.60
2018-08-11T16:16:51.254Z,0.70
2018-08-11T16:19:20.278Z,0.93
2018-08-11T16:21:49.316Z,0.80
2018-08-11T16:24:18.312Z,0.73
2018-08-11T16:26:47.563Z,0.73
2018-08-11T16:29:16.539Z,0.70
2018-08-11T16:31:45.603Z,0.70
2018-08-11T16:34:14.620Z,0.70
2018-08-11T16:36:43.773Z,0.70
2018-08-11T16:39:12.875Z,0.73
2018-08-11T16:41:41.897Z,0.70
2018-08-11T16:44:10.969Z,0.70
2018-08-11T16:46:40.046Z,0.77
2018-08-11T16:49:09.070Z,1.00
2018-08-11T16:51:38.069Z,0.80
2018-08-11T16:54:07.134Z,0.70
2018-08-11T16:56:36.241Z,0.83
2018-08-11T16:59:05.426Z,0.50
2018-08-11T17:01:34.505Z,0.83
2018-08-11T17:04:03.498Z,1.43
2018-08-11T17:06:32.670Z,2.60
2018-08-11T17:09:01.639Z,1.37
2018-08-11T17:11:30.650Z,1.50
2018-08-11T17:13:59.725Z,1.33
2018-08-11T17:16:28.844Z,0.70
2018-08-11T17:18:57.905Z,0.80
2018-08-11T17:21:27.051Z,0.80
2018-08-11T17:23:56.090Z,0.80
2018-08-11T17:26:25.178Z,0.73
2018-08-11T17:28:54.225Z,0.77
2018-08-11T17:31:24.401Z,0.77
2018-08-11T17:33:53.341Z,1.00
2018-08-11T17:36:22.483Z,0.90
2018-08-11T17:38:51.876Z,0.97
2018-08-11T17:41:21.186Z,0.90
2018-08-11T17:43:50.486Z,1.40
2018-08-11T17:46:19.605Z,1.07
2018-08-11T17:48:48.697Z,1.20
2018-08-11T17:51:17.951Z,1.37
2018-08-11T17:53:47.117Z,3.53
2018-08-11T17:56:16.349Z,4.10
2018-08-11T17:58:45.676Z,5.67
2018-08-11T18:01:14.817Z,3.47
2018-08-11T18:03:44.047Z,4.37
2018-08-11T18:06:13.127Z,3.20
2018-08-11T18:08:42.062Z,2.50
2018-08-11T18:11:11.166Z,1.93
2018-08-11T18:13:40.366Z,1.43
2018-08-11T18:16:09.654Z,1.60
2018-08-11T18:18:38.608Z,1.27
2018-08-11T18:21:07.720Z,0.77
2018-08-11T18:23:36.851Z,0.93
2018-08-11T18:26:05.956Z,0.90
2018-08-11T18:28:34.905Z,0.70
2018-08-11T18:31:03.890Z,0.80
2018-08-11T18:33:39.471Z,0.93
2018-08-11T18:36:08.508Z,0.80
2018-08-11T18:38:37.611Z,0.83
2018-08-11T18:41:06.758Z,1.30
2018-08-11T18:43:35.925Z,1.67
2018-08-11T18:46:06.010Z,1.23
2018-08-11T18:48:35.347Z,1.33
2018-08-11T18:51:04.461Z,0.80
2018-08-11T18:53:33.569Z,1.00
2018-08-11T18:56:02.714Z,0.90
2018-08-11T18:58:31.680Z,1.00
2018-08-11T19:01:00.724Z,1.13
2018-08-11T19:03:29.774Z,1.00
2018-08-11T19:05:58.726Z,0.90
2018-08-11T19:08:27.757Z,0.87
2018-08-11T19:10:56.743Z,0.80
2018-08-11T19:13:25.792Z,0.70
2018-08-11T19:15:54.834Z,0.90
2018-08-11T19:18:23.946Z,0.90
2018-08-11T19:20:53.041Z,1.40
2018-08-11T19:23:22.054Z,1.53
2018-08-11T19:25:51.057Z,0.80
2018-08-11T19:28:20.097Z,1.20
2018-08-11T19:30:50.122Z,0.83
2018-08-11T19:33:19.163Z,0.80
2018-08-11T19:35:48.154Z,0.80
2018-08-11T19:38:17.221Z,1.10
2018-08-11T19:40:46.186Z,0.80
2018-08-11T19:43:15.216Z,1.10
2018-08-11T19:45:44.617Z,0.90
2018-08-11T19:48:14.241Z,0.87
2018-08-11T19:50:43.343Z,1.00
2018-08-11T19:53:12.374Z,0.90
2018-08-11T19:55:41.458Z,0.90
2018-08-11T19:58:10.462Z,0.60
2018-08-11T20:00:39.530Z,0.80
2018-08-11T20:03:08.845Z,0.70
2018-08-11T20:05:37.924Z,0.67
2018-08-11T20:08:06.950Z,0.90
2018-08-11T20:10:35.984Z,0.80
2018-08-11T20:13:05.043Z,1.00
2018-08-11T20:15:34.505Z,1.03
2018-08-11T20:18:03.617Z,0.87
2018-08-11T20:20:34.911Z,0.80
2018-08-11T20:23:03.930Z,0.83
2018-08-11T20:25:33.055Z,0.87
2018-08-11T20:28:03.306Z,0.90
2018-08-11T20:30:32.333Z,0.60
2018-08-11T20:33:01.314Z,0.90
2018-08-11T20:35:30.338Z,0.80
2018-08-11T20:37:59.471Z,0.80
2018-08-11T20:40:28.578Z,0.80
2018-08-11T20:42:57.673Z,0.70
2018-08-11T20:45:26.816Z,0.90
2018-08-11T20:47:55.890Z,0.80
2018-08-11T20:50:24.874Z,1.07
2018-08-11T20:52:53.919Z,0.80
2018-08-11T20:55:23.061Z,0.90
2018-08-11T20:57:52.113Z,0.70
2018-08-11T21:00:21.443Z,0.70
2018-08-11T21:02:50.471Z,1.17
2018-08-11T21:05:19.516Z,0.80
2018-08-11T21:07:48.497Z,1.03
2018-08-11T21:10:17.600Z,1.10
2018-08-11T21:12:46.649Z,1.00
2018-08-11T21:15:15.908Z,0.90
2018-08-11T21:17:45.424Z,1.30
2018-08-11T21:20:15.311Z,0.93
2018-08-11T21:22:44.767Z,1.00
2018-08-11T21:25:13.769Z,0.80
2018-08-11T21:27:43.116Z,1.00
2018-08-11T21:30:14.160Z,1.10
2018-08-11T21:32:43.536Z,0.80
2018-08-11T21:35:12.679Z,1.00
2018-08-11T21:37:41.612Z,0.87
2018-08-11T21:40:13.116Z,0.70
2018-08-11T21:42:42.573Z,1.20
2018-08-11T21:45:11.959Z,0.97
2018-08-11T21:47:42.345Z,0.80
2018-08-11T21:50:12.137Z,1.13
2018-08-11T21:52:41.290Z,1.33
2018-08-11T21:55:10.953Z,1.27
2018-08-11T21:57:40.405Z,0.90
2018-08-11T22:00:35.674Z,1.40
2018-08-11T22:03:05.645Z,1.00
2018-08-11T22:05:35.032Z,1.10
2018-08-11T22:08:04.399Z,0.90
2018-08-11T22:10:33.474Z,0.73
2018-08-11T22:13:02.440Z,0.80
2018-08-11T22:15:31.641Z,2.60
2018-08-11T22:18:00.625Z,1.03
2018-08-11T22:20:29.935Z,1.23
2018-08-11T22:22:59.117Z,0.90
2018-08-11T22:25:28.201Z,0.97
2018-08-11T22:27:57.303Z,0.90
2018-08-11T22:30:26.369Z,0.93
2018-08-11T22:32:55.530Z,1.40
2018-08-11T22:35:25.018Z,1.53
2018-08-11T22:37:54.085Z,3.90
2018-08-11T22:40:23.184Z,5.50
2018-08-11T22:42:52.197Z,4.07
2018-08-11T22:45:21.298Z,2.73
2018-08-11T22:47:50.677Z,4.10
2018-08-11T22:50:20.187Z,3.30
2018-08-11T22:52:49.257Z,4.13
2018-08-11T22:55:18.263Z,2.10
2018-08-11T22:57:47.260Z,1.40
2018-08-11T23:00:18.897Z,1.50
2018-08-11T23:02:47.946Z,1.40
2018-08-11T23:05:18.212Z,2.10
2018-08-11T23:07:47.163Z,1.80
2018-08-11T23:10:16.930Z,1.80
2018-08-11T23:12:46.505Z,1.70
2018-08-11T23:15:16.877Z,1.70
2018-08-11T23:17:47.009Z,1.20
2018-08-11T23:20:16.501Z,1.30
2018-08-11T23:22:45.770Z,1.30
2018-08-11T23:25:15.558Z,1.40
2018-08-11T23:27:44.637Z,1.70
2018-08-11T23:30:15.777Z,2.20
2018-08-11T23:32:45.081Z,2.53
2018-08-11T23:35:14.503Z,1.67
2018-08-11T23:37:44.389Z,2.13
2018-08-11T23:40:13.450Z,2.30
2018-08-11T23:42:42.469Z,2.83
2018-08-11T23:45:14.570Z,2.40
2018-08-11T23:47:43.684Z,2.60
2018-08-11T23:50:13.601Z,2.60
2018-08-11T23:52:43.256Z,3.20
2018-08-11T23:55:13.533Z,6.80
2018-08-11T23:57:42.567Z,6.60
